sensor_id;sensor_type;location;lat;lon;timestamp;P1;durP1;ratioP1;P2;durP2;ratioP2
23634;SDS011;11994;51.038;16.974;2022-10-17T00:00:44;23.10;;;20.60;;
23634;SDS011;11994;51.038;16.974;2022-10-17T00:03:10;27.10;;;22.35;;
23634;SDS011;11994;51.038;16.974;2022-10-17T00:05:39;29.52;;;22.52;;
23634;SDS011;11994;51.038;16.974;2022-10-17T00:08:09;31.07;;;23.52;;
23634;SDS011;11994;51.038;16.974;2022-10-17T00:10:37;28.60;;;23.67;;
23634;SDS011;11994;51.038;16.974;2022-10-17T00:13:03;26.23;;;21.77;;
23634;SDS011;11994;51.038;16.974;2022-10-17T00:15:30;25.57;;;20.50;;
23634;SDS011;11994;51.038;16.974;2022-10-17T00:17:57;26.07;;;21.23;;
23634;SDS011;11994;51.038;16.974;2022-10-17T00:20:23;28.95;;;22.27;;
23634;SDS011;11994;51.038;16.974;2022-10-17T00:22:50;31.52;;;23.42;;
23634;SDS011;11994;51.038;16.974;2022-10-17T00:25:16;29.72;;;24.07;;
23634;SDS011;11994;51.038;16.974;2022-10-17T00:27:43;28.05;;;22.32;;
23634;SDS011;11994;51.038;16.974;2022-10-17T00:30:11;24.18;;;20.50;;
23634;SDS011;11994;51.038;16.974;2022-10-17T00:32:39;25.90;;;23.05;;
23634;SDS011;11994;51.038;16.974;2022-10-17T00:35:05;24.25;;;21.62;;
23634;SDS011;11994;51.038;16.974;2022-10-17T00:37:33;25.20;;;22.25;;
23634;SDS011;11994;51.038;16.974;2022-10-17T00:39:59;27.45;;;23.42;;
23634;SDS011;11994;51.038;16.974;2022-10-17T00:42:25;25.15;;;22.45;;
23634;SDS011;11994;51.038;16.974;2022-10-17T00:47:54;24.75;;;19.80;;
23634;SDS011;11994;51.038;16.974;2022-10-17T00:50:23;25.17;;;21.82;;
23634;SDS011;11994;51.038;16.974;2022-10-17T00:52:50;25.25;;;22.15;;
23634;SDS011;11994;51.038;16.974;2022-10-17T00:55:20;26.65;;;23.18;;
23634;SDS011;11994;51.038;16.974;2022-10-17T00:57:48;27.02;;;24.10;;
23634;SDS011;11994;51.038;16.974;2022-10-17T01:00:16;27.52;;;21.07;;
23634;SDS011;11994;51.038;16.974;2022-10-17T01:02:43;23.35;;;20.10;;
23634;SDS011;11994;51.038;16.974;2022-10-17T01:05:09;26.45;;;21.15;;
23634;SDS011;11994;51.038;16.974;2022-10-17T01:07:36;30.05;;;22.15;;
23634;SDS011;11994;51.038;16.974;2022-10-17T01:10:04;25.52;;;21.87;;
23634;SDS011;11994;51.038;16.974;2022-10-17T01:12:37;26.20;;;23.42;;
23634;SDS011;11994;51.038;16.974;2022-10-17T01:24:23;28.87;;;21.73;;
23634;SDS011;11994;51.038;16.974;2022-10-17T01:27:33;27.10;;;22.05;;
23634;SDS011;11994;51.038;16.974;2022-10-17T01:30:16;27.98;;;22.02;;
23634;SDS011;11994;51.038;16.974;2022-10-17T01:36:11;26.45;;;21.85;;
23634;SDS011;11994;51.038;16.974;2022-10-17T01:38:48;25.27;;;19.32;;
23634;SDS011;11994;51.038;16.974;2022-10-17T01:41:27;28.00;;;21.23;;
23634;SDS011;11994;51.038;16.974;2022-10-17T01:44:16;23.77;;;21.07;;
23634;SDS011;11994;51.038;16.974;2022-10-17T01:46:57;27.80;;;22.40;;
23634;SDS011;11994;51.038;16.974;2022-10-17T01:49:31;27.55;;;22.95;;
23634;SDS011;11994;51.038;16.974;2022-10-17T01:52:05;23.50;;;20.95;;
23634;SDS011;11994;51.038;16.974;2022-10-17T01:54:48;24.07;;;19.65;;
23634;SDS011;11994;51.038;16.974;2022-10-17T01:57:20;22.82;;;20.43;;
23634;SDS011;11994;51.038;16.974;2022-10-17T02:00:05;25.40;;;21.68;;
23634;SDS011;11994;51.038;16.974;2022-10-17T02:02:36;26.85;;;22.55;;
23634;SDS011;11994;51.038;16.974;2022-10-17T02:05:02;26.07;;;21.70;;
23634;SDS011;11994;51.038;16.974;2022-10-17T02:07:29;27.82;;;21.73;;
23634;SDS011;11994;51.038;16.974;2022-10-17T02:09:55;22.07;;;19.70;;
23634;SDS011;11994;51.038;16.974;2022-10-17T02:12:27;39.73;;;33.53;;
23634;SDS011;11994;51.038;16.974;2022-10-17T02:17:56;33.88;;;25.95;;
23634;SDS011;11994;51.038;16.974;2022-10-17T02:20:52;33.98;;;28.00;;
23634;SDS011;11994;51.038;16.974;2022-10-17T02:26:43;43.33;;;34.38;;
23634;SDS011;11994;51.038;16.974;2022-10-17T02:31:44;29.65;;;25.75;;
23634;SDS011;11994;51.038;16.974;2022-10-17T02:34:18;28.32;;;23.35;;
23634;SDS011;11994;51.038;16.974;2022-10-17T02:36:57;29.83;;;24.37;;
23634;SDS011;11994;51.038;16.974;2022-10-17T02:39:26;24.95;;;21.20;;
23634;SDS011;11994;51.038;16.974;2022-10-17T02:41:55;24.20;;;19.42;;
23634;SDS011;11994;51.038;16.974;2022-10-17T02:44:24;23.70;;;20.30;;
23634;SDS011;11994;51.038;16.974;2022-10-17T02:46:54;24.07;;;19.98;;
23634;SDS011;11994;51.038;16.974;2022-10-17T02:49:31;30.92;;;23.67;;
23634;SDS011;11994;51.038;16.974;2022-10-17T02:52:06;28.80;;;23.07;;
23634;SDS011;11994;51.038;16.974;2022-10-17T02:54:38;29.18;;;23.00;;
23634;SDS011;11994;51.038;16.974;2022-10-17T02:57:15;28.07;;;19.42;;
23634;SDS011;11994;51.038;16.974;2022-10-17T02:59:52;22.75;;;18.73;;
23634;SDS011;11994;51.038;16.974;2022-10-17T03:04:49;27.98;;;21.80;;
23634;SDS011;11994;51.038;16.974;2022-10-17T03:07:15;28.12;;;22.20;;
23634;SDS011;11994;51.038;16.974;2022-10-17T03:09:41;30.37;;;22.48;;
23634;SDS011;11994;51.038;16.974;2022-10-17T03:12:07;26.50;;;23.15;;
23634;SDS011;11994;51.038;16.974;2022-10-17T03:14:33;26.82;;;21.75;;
23634;SDS011;11994;51.038;16.974;2022-10-17T03:17:00;29.55;;;21.07;;
23634;SDS011;11994;51.038;16.974;2022-10-17T03:19:26;23.70;;;20.57;;
23634;SDS011;11994;51.038;16.974;2022-10-17T03:21:52;26.75;;;21.82;;
23634;SDS011;11994;51.038;16.974;2022-10-17T03:24:19;29.07;;;21.60;;
23634;SDS011;11994;51.038;16.974;2022-10-17T03:26:45;26.10;;;22.52;;
23634;SDS011;11994;51.038;16.974;2022-10-17T03:29:12;28.42;;;23.67;;
23634;SDS011;11994;51.038;16.974;2022-10-17T03:31:38;25.37;;;21.55;;
23634;SDS011;11994;51.038;16.974;2022-10-17T03:34:04;26.97;;;20.70;;
23634;SDS011;11994;51.038;16.974;2022-10-17T03:36:30;23.32;;;20.17;;
23634;SDS011;11994;51.038;16.974;2022-10-17T03:38:56;25.95;;;21.73;;
23634;SDS011;11994;51.038;16.974;2022-10-17T03:41:22;28.65;;;24.12;;
23634;SDS011;11994;51.038;16.974;2022-10-17T03:43:48;28.35;;;24.40;;
23634;SDS011;11994;51.038;16.974;2022-10-17T03:46:19;26.82;;;21.02;;
23634;SDS011;11994;51.038;16.974;2022-10-17T03:48:45;26.52;;;20.55;;
23634;SDS011;11994;51.038;16.974;2022-10-17T03:51:12;23.83;;;20.85;;
23634;SDS011;11994;51.038;16.974;2022-10-17T03:53:38;28.77;;;20.45;;
23634;SDS011;11994;51.038;16.974;2022-10-17T03:56:12;27.00;;;21.10;;
23634;SDS011;11994;51.038;16.974;2022-10-17T03:58:41;25.00;;;22.25;;
23634;SDS011;11994;51.038;16.974;2022-10-17T04:01:08;32.30;;;23.70;;
23634;SDS011;11994;51.038;16.974;2022-10-17T04:03:37;30.80;;;23.07;;
23634;SDS011;11994;51.038;16.974;2022-10-17T04:06:04;26.17;;;21.30;;
23634;SDS011;11994;51.038;16.974;2022-10-17T04:08:31;28.77;;;21.77;;
23634;SDS011;11994;51.038;16.974;2022-10-17T04:10:59;27.50;;;22.87;;
23634;SDS011;11994;51.038;16.974;2022-10-17T04:13:27;31.90;;;23.20;;
23634;SDS011;11994;51.038;16.974;2022-10-17T04:15:54;33.80;;;24.23;;
23634;SDS011;11994;51.038;16.974;2022-10-17T04:18:23;26.33;;;21.52;;
23634;SDS011;11994;51.038;16.974;2022-10-17T04:20:49;25.95;;;19.85;;
23634;SDS011;11994;51.038;16.974;2022-10-17T04:23:15;29.02;;;21.27;;
23634;SDS011;11994;51.038;16.974;2022-10-17T04:25:41;29.32;;;21.70;;
23634;SDS011;11994;51.038;16.974;2022-10-17T04:28:07;27.77;;;22.67;;
23634;SDS011;11994;51.038;16.974;2022-10-17T04:30:34;32.55;;;24.32;;
23634;SDS011;11994;51.038;16.974;2022-10-17T04:33:00;28.85;;;21.25;;
23634;SDS011;11994;51.038;16.974;2022-10-17T04:35:26;27.07;;;20.48;;
23634;SDS011;11994;51.038;16.974;2022-10-17T04:37:53;29.42;;;22.22;;
23634;SDS011;11994;51.038;16.974;2022-10-17T04:40:19;34.40;;;22.70;;
23634;SDS011;11994;51.038;16.974;2022-10-17T04:42:45;29.32;;;23.00;;
23634;SDS011;11994;51.038;16.974;2022-10-17T04:45:11;31.07;;;24.35;;
23634;SDS011;11994;51.038;16.974;2022-10-17T04:47:38;29.18;;;22.13;;
23634;SDS011;11994;51.038;16.974;2022-10-17T04:50:04;30.10;;;21.25;;
23634;SDS011;11994;51.038;16.974;2022-10-17T04:52:31;27.50;;;21.40;;
23634;SDS011;11994;51.038;16.974;2022-10-17T04:55:01;25.85;;;22.58;;
23634;SDS011;11994;51.038;16.974;2022-10-17T04:57:29;32.35;;;23.32;;
23634;SDS011;11994;51.038;16.974;2022-10-17T04:59:55;26.57;;;23.55;;
23634;SDS011;11994;51.038;16.974;2022-10-17T05:02:22;28.20;;;23.80;;
23634;SDS011;11994;51.038;16.974;2022-10-17T05:04:48;29.57;;;20.72;;
23634;SDS011;11994;51.038;16.974;2022-10-17T05:07:14;27.70;;;20.43;;
23634;SDS011;11994;51.038;16.974;2022-10-17T05:09:40;27.15;;;21.65;;
23634;SDS011;11994;51.038;16.974;2022-10-17T05:12:06;28.40;;;21.75;;
23634;SDS011;11994;51.038;16.974;2022-10-17T05:14:32;27.95;;;22.10;;
23634;SDS011;11994;51.038;16.974;2022-10-17T05:16:58;26.80;;;22.60;;
23634;SDS011;11994;51.038;16.974;2022-10-17T05:19:24;29.60;;;22.37;;
23634;SDS011;11994;51.038;16.974;2022-10-17T05:21:50;28.40;;;20.95;;
23634;SDS011;11994;51.038;16.974;2022-10-17T05:24:16;25.32;;;19.87;;
23634;SDS011;11994;51.038;16.974;2022-10-17T05:26:42;30.08;;;21.80;;
23634;SDS011;11994;51.038;16.974;2022-10-17T05:29:09;29.37;;;23.55;;
23634;SDS011;11994;51.038;16.974;2022-10-17T05:31:35;31.90;;;23.57;;
23634;SDS011;11994;51.038;16.974;2022-10-17T05:34:01;28.27;;;23.73;;
23634;SDS011;11994;51.038;16.974;2022-10-17T05:36:28;29.25;;;21.97;;
23634;SDS011;11994;51.038;16.974;2022-10-17T05:38:55;27.30;;;20.92;;
23634;SDS011;11994;51.038;16.974;2022-10-17T05:41:21;28.65;;;22.48;;
23634;SDS011;11994;51.038;16.974;2022-10-17T05:43:47;31.20;;;23.42;;
23634;SDS011;11994;51.038;16.974;2022-10-17T05:46:14;33.48;;;24.65;;
23634;SDS011;11994;51.038;16.974;2022-10-17T05:48:40;30.37;;;24.52;;
23634;SDS011;11994;51.038;16.974;2022-10-17T05:51:07;31.23;;;23.47;;
23634;SDS011;11994;51.038;16.974;2022-10-17T05:53:35;29.30;;;22.17;;
23634;SDS011;11994;51.038;16.974;2022-10-17T05:56:04;31.03;;;22.67;;
23634;SDS011;11994;51.038;16.974;2022-10-17T05:58:34;31.02;;;23.18;;
23634;SDS011;11994;51.038;16.974;2022-10-17T06:01:01;31.12;;;25.17;;
23634;SDS011;11994;51.038;16.974;2022-10-17T06:03:31;31.57;;;25.17;;
23634;SDS011;11994;51.038;16.974;2022-10-17T06:06:11;33.58;;;22.95;;
23634;SDS011;11994;51.038;16.974;2022-10-17T06:08:39;27.62;;;21.10;;
23634;SDS011;11994;51.038;16.974;2022-10-17T06:11:05;27.13;;;22.05;;
23634;SDS011;11994;51.038;16.974;2022-10-17T06:13:31;29.82;;;22.32;;
23634;SDS011;11994;51.038;16.974;2022-10-17T06:15:57;32.48;;;24.37;;
23634;SDS011;11994;51.038;16.974;2022-10-17T06:18:23;37.50;;;23.38;;
23634;SDS011;11994;51.038;16.974;2022-10-17T06:20:50;26.97;;;22.07;;
23634;SDS011;11994;51.038;16.974;2022-10-17T06:23:17;27.45;;;20.43;;
23634;SDS011;11994;51.038;16.974;2022-10-17T06:25:44;26.48;;;21.55;;
23634;SDS011;11994;51.038;16.974;2022-10-17T06:28:10;25.62;;;22.60;;
23634;SDS011;11994;51.038;16.974;2022-10-17T06:30:37;30.92;;;23.80;;
23634;SDS011;11994;51.038;16.974;2022-10-17T06:33:05;36.35;;;23.57;;
23634;SDS011;11994;51.038;16.974;2022-10-17T06:35:31;31.30;;;21.40;;
23634;SDS011;11994;51.038;16.974;2022-10-17T06:37:57;27.80;;;20.62;;
23634;SDS011;11994;51.038;16.974;2022-10-17T06:40:24;26.75;;;21.40;;
23634;SDS011;11994;51.038;16.974;2022-10-17T06:42:50;29.63;;;22.52;;
23634;SDS011;11994;51.038;16.974;2022-10-17T06:45:16;30.82;;;24.30;;
23634;SDS011;11994;51.038;16.974;2022-10-17T06:47:42;25.72;;;21.40;;
23634;SDS011;11994;51.038;16.974;2022-10-17T06:50:08;25.10;;;20.55;;
23634;SDS011;11994;51.038;16.974;2022-10-17T06:52:35;31.75;;;21.90;;
23634;SDS011;11994;51.038;16.974;2022-10-17T06:55:02;27.17;;;22.50;;
23634;SDS011;11994;51.038;16.974;2022-10-17T06:57:28;31.60;;;23.40;;
23634;SDS011;11994;51.038;16.974;2022-10-17T06:59:54;32.08;;;23.38;;
23634;SDS011;11994;51.038;16.974;2022-10-17T07:02:22;24.07;;;20.12;;
23634;SDS011;11994;51.038;16.974;2022-10-17T07:04:48;23.70;;;19.40;;
23634;SDS011;11994;51.038;16.974;2022-10-17T07:07:14;29.63;;;21.12;;
23634;SDS011;11994;51.038;16.974;2022-10-17T07:09:40;33.65;;;22.67;;
23634;SDS011;11994;51.038;16.974;2022-10-17T07:12:06;29.07;;;23.52;;
23634;SDS011;11994;51.038;16.974;2022-10-17T07:14:33;32.65;;;24.20;;
23634;SDS011;11994;51.038;16.974;2022-10-17T07:17:00;25.50;;;21.23;;
23634;SDS011;11994;51.038;16.974;2022-10-17T07:19:26;25.32;;;20.05;;
23634;SDS011;11994;51.038;16.974;2022-10-17T07:21:53;28.07;;;21.70;;
23634;SDS011;11994;51.038;16.974;2022-10-17T07:24:19;29.12;;;22.27;;
23634;SDS011;11994;51.038;16.974;2022-10-17T07:26:45;29.02;;;22.62;;
23634;SDS011;11994;51.038;16.974;2022-10-17T07:29:11;27.13;;;20.60;;
23634;SDS011;11994;51.038;16.974;2022-10-17T07:31:37;25.40;;;19.73;;
23634;SDS011;11994;51.038;16.974;2022-10-17T07:34:04;24.12;;;20.72;;
23634;SDS011;11994;51.038;16.974;2022-10-17T07:36:30;28.23;;;22.10;;
23634;SDS011;11994;51.038;16.974;2022-10-17T07:38:56;28.17;;;22.82;;
23634;SDS011;11994;51.038;16.974;2022-10-17T07:41:22;26.87;;;22.15;;
23634;SDS011;11994;51.038;16.974;2022-10-17T07:43:48;25.30;;;19.95;;
23634;SDS011;11994;51.038;16.974;2022-10-17T07:46:15;24.95;;;19.42;;
23634;SDS011;11994;51.038;16.974;2022-10-17T07:48:41;26.35;;;20.52;;
23634;SDS011;11994;51.038;16.974;2022-10-17T07:51:07;25.12;;;19.98;;
23634;SDS011;11994;51.038;16.974;2022-10-17T07:53:35;25.40;;;21.10;;
23634;SDS011;11994;51.038;16.974;2022-10-17T07:56:06;23.83;;;21.00;;
23634;SDS011;11994;51.038;16.974;2022-10-17T07:58:34;28.10;;;22.48;;
23634;SDS011;11994;51.038;16.974;2022-10-17T08:01:05;26.65;;;19.65;;
23634;SDS011;11994;51.038;16.974;2022-10-17T08:03:35;21.50;;;18.35;;
23634;SDS011;11994;51.038;16.974;2022-10-17T08:06:02;23.98;;;20.10;;
23634;SDS011;11994;51.038;16.974;2022-10-17T08:08:28;23.73;;;20.25;;
23634;SDS011;11994;51.038;16.974;2022-10-17T08:10:55;26.37;;;20.35;;
23634;SDS011;11994;51.038;16.974;2022-10-17T08:13:31;26.12;;;20.90;;
23634;SDS011;11994;51.038;16.974;2022-10-17T08:16:03;24.87;;;20.68;;
23634;SDS011;11994;51.038;16.974;2022-10-17T08:18:27;30.25;;;20.80;;
23634;SDS011;11994;51.038;16.974;2022-10-17T08:20:54;21.93;;;19.07;;
23634;SDS011;11994;51.038;16.974;2022-10-17T08:23:22;23.52;;;16.97;;
23634;SDS011;11994;51.038;16.974;2022-10-17T08:25:48;22.25;;;18.77;;
23634;SDS011;11994;51.038;16.974;2022-10-17T08:28:14;21.27;;;17.50;;
23634;SDS011;11994;51.038;16.974;2022-10-17T08:30:40;25.08;;;19.87;;
23634;SDS011;11994;51.038;16.974;2022-10-17T08:33:06;21.25;;;18.02;;
23634;SDS011;11994;51.038;16.974;2022-10-17T08:35:32;23.60;;;18.65;;
23634;SDS011;11994;51.038;16.974;2022-10-17T08:37:59;20.00;;;17.75;;
23634;SDS011;11994;51.038;16.974;2022-10-17T08:40:27;22.37;;;18.15;;
23634;SDS011;11994;51.038;16.974;2022-10-17T08:43:07;22.60;;;19.10;;
23634;SDS011;11994;51.038;16.974;2022-10-17T08:46:04;20.08;;;16.55;;
23634;SDS011;11994;51.038;16.974;2022-10-17T08:48:34;19.05;;;17.05;;
23634;SDS011;11994;51.038;16.974;2022-10-17T08:51:20;25.12;;;16.45;;
23634;SDS011;11994;51.038;16.974;2022-10-17T08:54:00;19.05;;;15.80;;
23634;SDS011;11994;51.038;16.974;2022-10-17T08:56:39;21.90;;;17.67;;
23634;SDS011;11994;51.038;16.974;2022-10-17T08:59:16;24.30;;;18.73;;
23634;SDS011;11994;51.038;16.974;2022-10-17T09:19:07;22.87;;;16.75;;
23634;SDS011;11994;51.038;16.974;2022-10-17T09:24:17;17.82;;;15.93;;
23634;SDS011;11994;51.038;16.974;2022-10-17T09:26:56;19.48;;;15.95;;
23634;SDS011;11994;51.038;16.974;2022-10-17T09:29:24;23.70;;;16.65;;
23634;SDS011;11994;51.038;16.974;2022-10-17T09:31:56;19.20;;;15.80;;
23634;SDS011;11994;51.038;16.974;2022-10-17T09:34:30;20.60;;;16.30;;
23634;SDS011;11994;51.038;16.974;2022-10-17T09:36:58;19.42;;;15.72;;
23634;SDS011;11994;51.038;16.974;2022-10-17T09:39:25;19.45;;;15.48;;
23634;SDS011;11994;51.038;16.974;2022-10-17T09:41:55;20.30;;;16.15;;
23634;SDS011;11994;51.038;16.974;2022-10-17T09:49:58;19.30;;;15.00;;
23634;SDS011;11994;51.038;16.974;2022-10-17T09:52:27;21.62;;;15.28;;
23634;SDS011;11994;51.038;16.974;2022-10-17T09:55:04;23.83;;;16.02;;
23634;SDS011;11994;51.038;16.974;2022-10-17T09:57:53;20.17;;;14.93;;
23634;SDS011;11994;51.038;16.974;2022-10-17T10:00:28;19.87;;;15.65;;
23634;SDS011;11994;51.038;16.974;2022-10-17T10:06:05;17.80;;;14.68;;
23634;SDS011;11994;51.038;16.974;2022-10-17T10:08:36;16.45;;;14.03;;
23634;SDS011;11994;51.038;16.974;2022-10-17T10:13:42;17.17;;;13.85;;
23634;SDS011;11994;51.038;16.974;2022-10-17T10:18:48;17.05;;;14.18;;
23634;SDS011;11994;51.038;16.974;2022-10-17T10:21:16;17.67;;;13.20;;
23634;SDS011;11994;51.038;16.974;2022-10-17T10:26:43;15.63;;;13.03;;
23634;SDS011;11994;51.038;16.974;2022-10-17T10:37:49;15.90;;;12.65;;
23634;SDS011;11994;51.038;16.974;2022-10-17T10:43:04;19.12;;;12.68;;
23634;SDS011;11994;51.038;16.974;2022-10-17T10:50:38;17.17;;;13.35;;
23634;SDS011;11994;51.038;16.974;2022-10-17T10:59:02;15.28;;;11.80;;
23634;SDS011;11994;51.038;16.974;2022-10-17T11:04:28;17.62;;;11.95;;
23634;SDS011;11994;51.038;16.974;2022-10-17T11:07:12;16.95;;;11.50;;
23634;SDS011;11994;51.038;16.974;2022-10-17T11:12:19;16.70;;;12.55;;
23634;SDS011;11994;51.038;16.974;2022-10-17T11:14:55;12.68;;;11.43;;
23634;SDS011;11994;51.038;16.974;2022-10-17T11:17:44;17.52;;;11.35;;
23634;SDS011;11994;51.038;16.974;2022-10-17T11:20:19;12.23;;;11.00;;
23634;SDS011;11994;51.038;16.974;2022-10-17T11:23:10;12.05;;;10.58;;
23634;SDS011;11994;51.038;16.974;2022-10-17T11:25:35;13.50;;;10.68;;
23634;SDS011;11994;51.038;16.974;2022-10-17T11:28:03;12.37;;;10.72;;
23634;SDS011;11994;51.038;16.974;2022-10-17T11:30:50;12.30;;;10.00;;
23634;SDS011;11994;51.038;16.974;2022-10-17T11:33:27;12.55;;;10.60;;
23634;SDS011;11994;51.038;16.974;2022-10-17T11:36:12;14.10;;;10.32;;
23634;SDS011;11994;51.038;16.974;2022-10-17T11:38:49;12.90;;;11.15;;
23634;SDS011;11994;51.038;16.974;2022-10-17T11:41:42;13.95;;;10.90;;
23634;SDS011;11994;51.038;16.974;2022-10-17T11:44:38;16.40;;;11.15;;
23634;SDS011;11994;51.038;16.974;2022-10-17T11:47:25;14.00;;;10.65;;
23634;SDS011;11994;51.038;16.974;2022-10-17T11:53:00;14.07;;;10.50;;
23634;SDS011;11994;51.038;16.974;2022-10-17T11:55:39;18.07;;;9.80;;
23634;SDS011;11994;51.038;16.974;2022-10-17T11:58:21;11.63;;;10.30;;
23634;SDS011;11994;51.038;16.974;2022-10-17T12:00:59;12.33;;;10.13;;
23634;SDS011;11994;51.038;16.974;2022-10-17T12:12:27;11.90;;;9.55;;
23634;SDS011;11994;51.038;16.974;2022-10-17T12:14:53;11.65;;;9.85;;
23634;SDS011;11994;51.038;16.974;2022-10-17T12:17:45;12.95;;;9.43;;
23634;SDS011;11994;51.038;16.974;2022-10-17T12:25:23;14.63;;;8.83;;
23634;SDS011;11994;51.038;16.974;2022-10-17T12:31:02;11.50;;;8.83;;
23634;SDS011;11994;51.038;16.974;2022-10-17T12:33:53;13.68;;;8.58;;
23634;SDS011;11994;51.038;16.974;2022-10-17T12:53:13;11.63;;;7.45;;
23634;SDS011;11994;51.038;16.974;2022-10-17T13:03:00;9.35;;;7.30;;
23634;SDS011;11994;51.038;16.974;2022-10-17T13:05:39;10.53;;;7.83;;
23634;SDS011;11994;51.038;16.974;2022-10-17T13:08:14;8.43;;;7.40;;
23634;SDS011;11994;51.038;16.974;2022-10-17T13:10:50;8.03;;;7.15;;
23634;SDS011;11994;51.038;16.974;2022-10-17T13:16:05;11.08;;;7.87;;
23634;SDS011;11994;51.038;16.974;2022-10-17T13:18:32;11.93;;;8.75;;
23634;SDS011;11994;51.038;16.974;2022-10-17T13:21:00;11.80;;;8.48;;
23634;SDS011;11994;51.038;16.974;2022-10-17T13:23:35;11.57;;;8.63;;
23634;SDS011;11994;51.038;16.974;2022-10-17T13:28:36;14.70;;;7.95;;
23634;SDS011;11994;51.038;16.974;2022-10-17T13:31:02;13.38;;;7.78;;
23634;SDS011;11994;51.038;16.974;2022-10-17T13:33:33;10.32;;;7.65;;
23634;SDS011;11994;51.038;16.974;2022-10-17T13:36:05;9.88;;;7.78;;
23634;SDS011;11994;51.038;16.974;2022-10-17T13:38:33;16.70;;;7.78;;
23634;SDS011;11994;51.038;16.974;2022-10-17T13:41:01;11.10;;;7.12;;
23634;SDS011;11994;51.038;16.974;2022-10-17T13:43:29;11.48;;;7.50;;
23634;SDS011;11994;51.038;16.974;2022-10-17T13:45:58;9.75;;;7.50;;
23634;SDS011;11994;51.038;16.974;2022-10-17T13:48:29;9.90;;;7.08;;
23634;SDS011;11994;51.038;16.974;2022-10-17T13:50:59;11.37;;;6.97;;
23634;SDS011;11994;51.038;16.974;2022-10-17T13:58:52;10.32;;;7.08;;
23634;SDS011;11994;51.038;16.974;2022-10-17T14:01:21;10.68;;;7.42;;
23634;SDS011;11994;51.038;16.974;2022-10-17T14:03:50;9.45;;;6.95;;
23634;SDS011;11994;51.038;16.974;2022-10-17T14:08:56;14.13;;;6.80;;
23634;SDS011;11994;51.038;16.974;2022-10-17T14:11:34;16.05;;;6.90;;
23634;SDS011;11994;51.038;16.974;2022-10-17T14:14:06;14.38;;;7.10;;
23634;SDS011;11994;51.038;16.974;2022-10-17T14:16:45;13.07;;;6.87;;
23634;SDS011;11994;51.038;16.974;2022-10-17T14:19:30;7.75;;;6.05;;
23634;SDS011;11994;51.038;16.974;2022-10-17T14:24:48;8.83;;;5.90;;
23634;SDS011;11994;51.038;16.974;2022-10-17T14:30:01;11.22;;;6.65;;
23634;SDS011;11994;51.038;16.974;2022-10-17T14:32:35;9.33;;;6.37;;
23634;SDS011;11994;51.038;16.974;2022-10-17T14:35:03;13.70;;;6.25;;
23634;SDS011;11994;51.038;16.974;2022-10-17T14:40:14;11.00;;;6.22;;
23634;SDS011;11994;51.038;16.974;2022-10-17T14:42:47;10.35;;;5.92;;
23634;SDS011;11994;51.038;16.974;2022-10-17T14:45:26;9.68;;;5.50;;
23634;SDS011;11994;51.038;16.974;2022-10-17T14:47:56;9.60;;;6.10;;
23634;SDS011;11994;51.038;16.974;2022-10-17T14:55:55;15.65;;;7.00;;
23634;SDS011;11994;51.038;16.974;2022-10-17T14:58:29;12.40;;;6.85;;
23634;SDS011;11994;51.038;16.974;2022-10-17T15:00:55;10.60;;;6.20;;
23634;SDS011;11994;51.038;16.974;2022-10-17T15:03:22;9.80;;;5.72;;
23634;SDS011;11994;51.038;16.974;2022-10-17T15:05:49;14.28;;;7.22;;
23634;SDS011;11994;51.038;16.974;2022-10-17T15:08:17;11.60;;;6.42;;
23634;SDS011;11994;51.038;16.974;2022-10-17T15:10:46;7.75;;;6.28;;
23634;SDS011;11994;51.038;16.974;2022-10-17T15:13:14;10.53;;;6.72;;
23634;SDS011;11994;51.038;16.974;2022-10-17T15:15:40;8.40;;;6.28;;
23634;SDS011;11994;51.038;16.974;2022-10-17T15:18:09;8.93;;;6.80;;
23634;SDS011;11994;51.038;16.974;2022-10-17T15:20:37;12.80;;;6.72;;
23634;SDS011;11994;51.038;16.974;2022-10-17T15:23:03;20.05;;;7.58;;
23634;SDS011;11994;51.038;16.974;2022-10-17T15:25:29;22.30;;;7.50;;
23634;SDS011;11994;51.038;16.974;2022-10-17T15:27:57;30.52;;;8.98;;
23634;SDS011;11994;51.038;16.974;2022-10-17T15:30:25;29.48;;;8.35;;
23634;SDS011;11994;51.038;16.974;2022-10-17T15:32:56;29.92;;;7.65;;
23634;SDS011;11994;51.038;16.974;2022-10-17T15:35:23;21.20;;;7.40;;
23634;SDS011;11994;51.038;16.974;2022-10-17T15:37:50;16.57;;;7.45;;
23634;SDS011;11994;51.038;16.974;2022-10-17T15:40:17;23.10;;;7.53;;
23634;SDS011;11994;51.038;16.974;2022-10-17T15:42:49;13.10;;;6.87;;
23634;SDS011;11994;51.038;16.974;2022-10-17T15:45:17;12.98;;;7.28;;
23634;SDS011;11994;51.038;16.974;2022-10-17T15:50:17;12.95;;;6.85;;
23634;SDS011;11994;51.038;16.974;2022-10-17T15:52:45;12.60;;;7.03;;
23634;SDS011;11994;51.038;16.974;2022-10-17T15:55:14;9.83;;;6.65;;
23634;SDS011;11994;51.038;16.974;2022-10-17T15:57:41;9.90;;;7.40;;
23634;SDS011;11994;51.038;16.974;2022-10-17T16:00:15;10.55;;;7.17;;
23634;SDS011;11994;51.038;16.974;2022-10-17T16:02:43;10.85;;;7.08;;
23634;SDS011;11994;51.038;16.974;2022-10-17T16:05:21;11.80;;;7.85;;
23634;SDS011;11994;51.038;16.974;2022-10-17T16:07:50;13.65;;;7.12;;
23634;SDS011;11994;51.038;16.974;2022-10-17T16:10:18;14.45;;;7.42;;
23634;SDS011;11994;51.038;16.974;2022-10-17T16:12:44;9.55;;;7.33;;
23634;SDS011;11994;51.038;16.974;2022-10-17T16:15:14;11.48;;;7.30;;
23634;SDS011;11994;51.038;16.974;2022-10-17T16:17:47;11.68;;;7.55;;
23634;SDS011;11994;51.038;16.974;2022-10-17T16:20:14;11.65;;;7.60;;
23634;SDS011;11994;51.038;16.974;2022-10-17T16:22:41;13.93;;;7.60;;
23634;SDS011;11994;51.038;16.974;2022-10-17T16:25:19;13.05;;;7.50;;
23634;SDS011;11994;51.038;16.974;2022-10-17T16:27:50;14.33;;;7.60;;
23634;SDS011;11994;51.038;16.974;2022-10-17T16:30:20;14.95;;;7.62;;
23634;SDS011;11994;51.038;16.974;2022-10-17T16:32:48;12.78;;;7.75;;
23634;SDS011;11994;51.038;16.974;2022-10-17T16:35:22;13.00;;;7.90;;
23634;SDS011;11994;51.038;16.974;2022-10-17T16:37:53;11.28;;;7.67;;
23634;SDS011;11994;51.038;16.974;2022-10-17T16:40:21;11.30;;;7.20;;
23634;SDS011;11994;51.038;16.974;2022-10-17T16:42:47;9.85;;;7.37;;
23634;SDS011;11994;51.038;16.974;2022-10-17T16:45:14;10.03;;;7.97;;
23634;SDS011;11994;51.038;16.974;2022-10-17T16:47:43;12.90;;;7.60;;
23634;SDS011;11994;51.038;16.974;2022-10-17T16:50:09;12.43;;;7.53;;
23634;SDS011;11994;51.038;16.974;2022-10-17T16:52:35;10.45;;;7.62;;
23634;SDS011;11994;51.038;16.974;2022-10-17T16:55:02;14.05;;;7.95;;
23634;SDS011;11994;51.038;16.974;2022-10-17T16:57:28;13.08;;;7.78;;
23634;SDS011;11994;51.038;16.974;2022-10-17T16:59:54;9.65;;;7.47;;
23634;SDS011;11994;51.038;16.974;2022-10-17T17:02:20;10.80;;;7.22;;
23634;SDS011;11994;51.038;16.974;2022-10-17T17:04:46;13.05;;;7.70;;
23634;SDS011;11994;51.038;16.974;2022-10-17T17:07:13;8.65;;;7.35;;
23634;SDS011;11994;51.038;16.974;2022-10-17T17:09:39;10.05;;;7.83;;
23634;SDS011;11994;51.038;16.974;2022-10-17T17:12:05;14.70;;;8.28;;
23634;SDS011;11994;51.038;16.974;2022-10-17T17:14:31;13.30;;;8.43;;